createdAt,value
2023-12-03T00:01:43.805Z,21.33
2023-12-03T00:04:10.803Z,22.90
2023-12-03T00:06:40.150Z,17.40
2023-12-03T00:09:08.293Z,19.10
2023-12-03T00:11:35.188Z,19.55
2023-12-03T00:14:02.045Z,20.10
2023-12-03T00:16:28.933Z,17.08
2023-12-03T00:18:56.014Z,21.17
2023-12-03T00:21:22.946Z,18.98
2023-12-03T00:23:49.907Z,19.58
2023-12-03T00:26:16.811Z,22.13
2023-12-03T00:28:46.905Z,23.30
2023-12-03T00:31:13.760Z,19.48
2023-12-03T00:33:40.704Z,18.38
2023-12-03T00:36:08.097Z,20.27
2023-12-03T00:38:35.025Z,20.27
2023-12-03T00:41:02.577Z,18.98
2023-12-03T00:43:29.454Z,21.55
2023-12-03T00:45:58.818Z,19.98
2023-12-03T00:48:25.878Z,20.13
2023-12-03T00:50:52.881Z,22.33
2023-12-03T00:53:19.779Z,21.10
2023-12-03T00:55:46.653Z,21.13
2023-12-03T00:58:13.494Z,21.50
2023-12-03T01:00:40.452Z,19.42
2023-12-03T01:03:07.324Z,19.90
2023-12-03T01:05:34.348Z,19.58
2023-12-03T01:08:01.319Z,18.95
2023-12-03T01:10:28.174Z,20.88
2023-12-03T01:12:55.074Z,21.10
2023-12-03T01:15:22.226Z,19.25
2023-12-03T01:17:49.168Z,20.50
2023-12-03T01:20:16.095Z,18.50
2023-12-03T01:22:42.990Z,20.95
2023-12-03T01:25:09.916Z,20.48
2023-12-03T01:27:36.839Z,19.33
2023-12-03T01:30:04.014Z,18.55
2023-12-03T01:32:30.913Z,19.50
2023-12-03T01:34:57.791Z,20.63
2023-12-03T01:37:24.732Z,19.15
2023-12-03T01:39:51.730Z,23.15
2023-12-03T01:42:18.713Z,18.85
2023-12-03T01:44:45.581Z,18.05
2023-12-03T01:47:15.013Z,17.85
2023-12-03T01:49:42.038Z,20.27
2023-12-03T01:52:08.984Z,19.52
2023-12-03T01:54:37.184Z,20.60
2023-12-03T01:57:04.936Z,19.75
2023-12-03T01:59:33.397Z,19.30
2023-12-03T02:02:00.375Z,19.85
2023-12-03T02:04:27.359Z,19.88
2023-12-03T02:06:54.262Z,19.42
2023-12-03T02:09:21.692Z,19.98
2023-12-03T02:11:48.804Z,20.08
2023-12-03T02:14:15.774Z,18.27
2023-12-03T02:16:49.428Z,21.83
2023-12-03T02:19:16.632Z,19.98
2023-12-03T02:21:43.793Z,19.52
2023-12-03T02:24:10.763Z,18.58
2023-12-03T02:26:37.609Z,17.10
2023-12-03T02:29:04.529Z,16.52
2023-12-03T02:31:31.855Z,19.48
2023-12-03T02:34:10.970Z,17.80
2023-12-03T02:36:38.860Z,17.85
2023-12-03T02:39:06.508Z,19.20
2023-12-03T02:41:33.683Z,19.20
2023-12-03T02:44:00.854Z,17.65
2023-12-03T02:46:27.742Z,17.48
2023-12-03T02:48:54.772Z,16.17
2023-12-03T02:51:21.858Z,15.52
2023-12-03T02:53:49.474Z,16.95
2023-12-03T02:56:17.520Z,17.52
2023-12-03T02:58:44.760Z,16.30
2023-12-03T03:01:11.645Z,16.23
2023-12-03T03:03:38.563Z,17.40
2023-12-03T03:06:05.645Z,17.83
2023-12-03T03:08:32.518Z,20.45
2023-12-03T03:10:59.378Z,16.33
2023-12-03T03:13:26.460Z,18.20
2023-12-03T03:15:54.901Z,17.30
2023-12-03T03:18:22.384Z,17.15
2023-12-03T03:20:49.334Z,17.35
2023-12-03T03:23:16.238Z,15.98
2023-12-03T03:25:43.350Z,18.80
2023-12-03T03:28:10.227Z,17.65
2023-12-03T03:30:37.078Z,17.58
2023-12-03T03:33:04.124Z,16.98
2023-12-03T03:35:31.187Z,16.73
2023-12-03T03:37:58.092Z,17.27
2023-12-03T03:40:24.946Z,16.83
2023-12-03T03:42:51.876Z,15.82
2023-12-03T03:45:18.763Z,17.83
2023-12-03T03:47:45.627Z,17.38
2023-12-03T03:50:12.558Z,16.52
2023-12-03T03:52:39.413Z,16.33
2023-12-03T03:55:06.553Z,15.68
2023-12-03T03:57:33.686Z,14.65
2023-12-03T04:00:00.582Z,14.15
2023-12-03T04:02:27.502Z,16.38
2023-12-03T04:04:54.412Z,15.48
2023-12-03T04:07:22.073Z,14.10
2023-12-03T04:09:49.279Z,14.60
2023-12-03T04:12:16.152Z,15.02
2023-12-03T04:14:43.071Z,15.10
2023-12-03T04:17:09.954Z,15.63
2023-12-03T04:19:37.739Z,16.00
2023-12-03T04:22:04.829Z,16.77
2023-12-03T04:24:31.906Z,12.88
2023-12-03T04:26:58.842Z,12.82
2023-12-03T04:29:25.692Z,14.38
2023-12-03T04:31:52.931Z,14.65
2023-12-03T04:34:19.853Z,15.10
2023-12-03T04:36:46.736Z,16.08
2023-12-03T04:39:13.714Z,14.90
2023-12-03T04:41:40.629Z,16.75
2023-12-03T04:44:07.454Z,14.88
2023-12-03T04:46:34.488Z,14.95
2023-12-03T04:49:01.961Z,13.82
2023-12-03T04:51:28.995Z,14.38
2023-12-03T04:53:55.915Z,13.32
2023-12-03T04:56:22.758Z,13.82
2023-12-03T04:58:49.679Z,11.85
2023-12-03T05:01:18.707Z,14.55
2023-12-03T05:03:46.843Z,15.75
2023-12-03T05:06:14.086Z,15.75
2023-12-03T05:08:41.039Z,13.73
2023-12-03T05:11:08.225Z,14.95
2023-12-03T05:13:35.701Z,13.95
2023-12-03T05:16:03.683Z,14.25
2023-12-03T05:18:30.647Z,13.30
2023-12-03T05:20:58.572Z,15.55
2023-12-03T05:23:26.089Z,12.93
2023-12-03T05:25:53.516Z,14.57
2023-12-03T05:28:20.542Z,13.07
2023-12-03T05:30:47.776Z,13.10
2023-12-03T05:33:15.055Z,14.10
2023-12-03T05:35:42.570Z,14.75
2023-12-03T05:38:09.547Z,16.02
2023-12-03T05:40:37.044Z,13.15
2023-12-03T05:43:04.022Z,15.48
2023-12-03T05:45:31.035Z,13.93
2023-12-03T05:47:58.055Z,15.45
2023-12-03T05:50:25.865Z,12.93
2023-12-03T05:52:52.739Z,14.80
2023-12-03T05:55:19.591Z,13.25
2023-12-03T05:57:46.473Z,14.05
2023-12-03T06:00:14.177Z,12.70
2023-12-03T06:02:41.075Z,13.27
2023-12-03T06:05:08.468Z,13.55
2023-12-03T06:07:35.526Z,14.27
2023-12-03T06:10:02.516Z,13.60
2023-12-03T06:12:29.464Z,13.43
2023-12-03T06:14:56.629Z,13.05
2023-12-03T06:17:23.496Z,14.65
2023-12-03T06:19:50.337Z,13.30
2023-12-03T06:22:17.210Z,12.85
2023-12-03T06:24:44.121Z,14.70
2023-12-03T06:27:11.046Z,14.38
2023-12-03T06:29:37.930Z,13.93
2023-12-03T06:32:04.869Z,16.40
2023-12-03T06:34:31.787Z,14.30
2023-12-03T06:37:00.416Z,14.30
2023-12-03T06:39:27.369Z,16.58
2023-12-03T06:41:54.228Z,15.35
2023-12-03T06:44:31.082Z,14.50
2023-12-03T06:47:06.341Z,14.52
2023-12-03T06:49:33.292Z,16.63
2023-12-03T06:52:00.668Z,14.38
2023-12-03T06:54:27.579Z,15.93
2023-12-03T06:56:54.452Z,15.35
2023-12-03T06:59:21.281Z,15.98
2023-12-03T07:01:48.173Z,15.77
2023-12-03T07:04:15.101Z,16.75
2023-12-03T07:06:42.100Z,13.82
2023-12-03T07:09:36.240Z,16.48
2023-12-03T07:11:55.798Z,15.27
2023-12-03T07:14:22.630Z,15.00
2023-12-03T07:16:49.518Z,15.93
2023-12-03T07:19:16.387Z,14.63
2023-12-03T07:21:43.365Z,17.02
2023-12-03T07:24:10.257Z,15.40
2023-12-03T07:26:37.117Z,15.45
2023-12-03T07:29:04.082Z,13.93
2023-12-03T07:31:32.288Z,17.67
2023-12-03T07:33:59.216Z,16.05
2023-12-03T07:36:26.807Z,17.98
2023-12-03T07:38:53.741Z,15.88
2023-12-03T07:41:20.581Z,16.33
2023-12-03T07:43:47.451Z,14.05
2023-12-03T07:46:18.209Z,18.55
2023-12-03T07:48:45.960Z,17.45
2023-12-03T07:51:13.403Z,17.23
2023-12-03T07:53:41.488Z,17.83
2023-12-03T07:56:09.124Z,18.08
2023-12-03T07:58:37.087Z,17.42
2023-12-03T08:01:06.549Z,17.40
2023-12-03T08:03:33.918Z,14.98
2023-12-03T08:06:01.087Z,17.55
2023-12-03T08:08:28.292Z,17.95
2023-12-03T08:10:55.158Z,16.85
2023-12-03T08:13:22.044Z,16.27
2023-12-03T08:15:49.000Z,18.85
2023-12-03T08:18:16.038Z,16.60
2023-12-03T08:20:42.995Z,17.17
2023-12-03T08:23:09.852Z,17.88
2023-12-03T08:25:36.839Z,17.90
2023-12-03T08:28:06.210Z,17.35
2023-12-03T08:30:33.077Z,18.35
2023-12-03T08:32:59.975Z,17.88
2023-12-03T08:35:26.894Z,18.48
2023-12-03T08:37:53.768Z,17.00
2023-12-03T08:40:20.665Z,15.98
2023-12-03T08:42:47.597Z,17.60
2023-12-03T08:45:14.871Z,21.77
2023-12-03T08:47:42.558Z,19.30
2023-12-03T08:50:09.601Z,21.55
2023-12-03T08:52:36.523Z,20.25
2023-12-03T08:55:04.123Z,20.42
2023-12-03T08:57:32.152Z,16.30
2023-12-03T08:59:59.260Z,18.88
2023-12-03T09:02:26.185Z,18.48
2023-12-03T09:04:53.244Z,17.52
2023-12-03T09:07:20.328Z,18.40
2023-12-03T09:09:47.281Z,18.77
2023-12-03T09:12:17.084Z,19.23
2023-12-03T09:14:44.138Z,19.27
2023-12-03T09:17:10.973Z,20.25
2023-12-03T09:19:37.876Z,17.92
2023-12-03T09:22:05.025Z,18.13
2023-12-03T09:24:32.268Z,17.75
2023-12-03T09:26:59.140Z,18.45
2023-12-03T09:29:26.056Z,19.80
2023-12-03T09:31:55.434Z,18.38
2023-12-03T09:34:23.625Z,17.73
2023-12-03T09:36:50.596Z,17.23
2023-12-03T09:39:17.875Z,17.23
2023-12-03T09:41:49.533Z,18.00
2023-12-03T09:44:26.638Z,17.65
2023-12-03T09:46:55.334Z,17.05
2023-12-03T09:49:29.509Z,17.55
2023-12-03T09:52:01.456Z,16.40
2023-12-03T09:54:29.810Z,16.58
2023-12-03T09:57:00.007Z,18.15
2023-12-03T09:59:28.909Z,16.88
2023-12-03T10:01:58.275Z,16.73
2023-12-03T10:04:25.351Z,14.95
2023-12-03T10:06:56.830Z,16.90
2023-12-03T10:09:23.868Z,16.98
2023-12-03T10:11:56.095Z,17.23
2023-12-03T10:14:23.003Z,17.77
2023-12-03T10:16:50.847Z,17.30
2023-12-03T10:19:29.190Z,15.60
2023-12-03T10:21:58.558Z,14.93
2023-12-03T10:24:25.497Z,16.70
2023-12-03T10:26:57.166Z,14.00
2023-12-03T10:29:27.760Z,14.60
2023-12-03T10:31:54.980Z,14.82
2023-12-03T10:34:22.620Z,16.85
2023-12-03T10:36:51.137Z,18.60
2023-12-03T10:39:19.118Z,16.23
2023-12-03T10:41:47.597Z,16.52
2023-12-03T10:44:19.145Z,15.05
2023-12-03T10:46:46.596Z,16.13
2023-12-03T10:49:14.784Z,14.65
2023-12-03T10:51:43.794Z,27.17
2023-12-03T10:54:12.033Z,15.00
2023-12-03T10:56:38.943Z,21.33
2023-12-03T10:59:10.748Z,18.63
2023-12-03T11:01:47.859Z,15.68
2023-12-03T11:04:28.461Z,14.35
2023-12-03T11:06:56.882Z,16.55
2023-12-03T11:09:24.769Z,15.80
2023-12-03T11:11:52.310Z,15.88
2023-12-03T11:14:20.540Z,16.45
2023-12-03T11:17:00.094Z,15.63
2023-12-03T11:19:29.042Z,18.13
2023-12-03T11:22:29.137Z,26.13
2023-12-03T11:25:19.686Z,16.10
2023-12-03T11:27:47.335Z,16.85
2023-12-03T11:30:16.212Z,13.70
2023-12-03T11:32:48.325Z,17.92
2023-12-03T11:35:17.942Z,18.40
2023-12-03T11:37:45.481Z,37.03
2023-12-03T11:40:21.274Z,44.00
2023-12-03T11:42:50.034Z,47.88
2023-12-03T11:45:28.358Z,47.92
2023-12-03T11:48:05.751Z,39.42
2023-12-03T11:50:35.283Z,65.82
2023-12-03T11:53:02.879Z,77.03
2023-12-03T11:55:33.482Z,88.38
2023-12-03T11:58:00.867Z,94.82
2023-12-03T12:00:29.083Z,125.93
2023-12-03T12:02:56.045Z,102.10
2023-12-03T12:05:22.977Z,266.33
2023-12-03T12:08:03.985Z,212.50
2023-12-03T12:10:35.606Z,240.70
2023-12-03T12:13:05.730Z,266.58
2023-12-03T12:15:32.908Z,242.18
2023-12-03T12:17:59.932Z,217.50
2023-12-03T12:20:31.273Z,238.48
2023-12-03T12:22:59.347Z,212.60
2023-12-03T12:25:28.160Z,81.90
2023-12-03T12:27:56.040Z,176.70
2023-12-03T12:30:34.674Z,167.60
2023-12-03T12:33:06.439Z,180.55
2023-12-03T12:35:34.579Z,170.00
2023-12-03T12:38:08.099Z,145.85
2023-12-03T12:40:42.460Z,148.75
2023-12-03T12:43:11.749Z,141.00
2023-12-03T12:45:40.162Z,128.60
2023-12-03T12:48:28.012Z,131.70
2023-12-03T12:50:55.312Z,129.23
2023-12-03T12:53:22.322Z,126.20
2023-12-03T12:55:51.488Z,105.88
2023-12-03T12:58:18.700Z,110.03
2023-12-03T13:00:45.692Z,103.28
2023-12-03T13:03:12.561Z,102.70
2023-12-03T13:05:40.526Z,84.25
2023-12-03T13:08:07.878Z,89.68
2023-12-03T13:10:35.660Z,87.25
2023-12-03T13:13:03.022Z,80.45
2023-12-03T13:15:30.107Z,85.53
2023-12-03T13:18:05.874Z,84.07
2023-12-03T13:20:39.823Z,70.97
2023-12-03T13:23:09.252Z,68.15
2023-12-03T13:25:36.904Z,65.18
2023-12-03T13:28:03.996Z,61.17
2023-12-03T13:30:30.942Z,59.83
2023-12-03T13:32:59.647Z,58.63
2023-12-03T13:35:26.807Z,53.50
2023-12-03T13:37:54.187Z,52.92
2023-12-03T13:40:21.151Z,48.53
2023-12-03T13:42:54.780Z,57.00
2023-12-03T13:45:22.742Z,45.95
2023-12-03T13:47:50.148Z,42.20
2023-12-03T13:50:17.258Z,44.05
2023-12-03T13:52:44.522Z,42.20
2023-12-03T13:55:11.948Z,43.10
2023-12-03T13:57:39.230Z,40.00
2023-12-03T14:00:07.515Z,41.90
2023-12-03T14:02:41.764Z,32.75
2023-12-03T14:07:40.022Z,38.67
2023-12-03T14:10:10.193Z,49.17
2023-12-03T14:12:37.303Z,44.80
2023-12-03T14:15:06.085Z,44.03
2023-12-03T14:17:33.294Z,37.75
2023-12-03T14:20:00.466Z,38.45
2023-12-03T14:22:27.380Z,41.80
2023-12-03T14:24:54.351Z,38.17
2023-12-03T14:27:21.782Z,35.50
2023-12-03T14:29:48.688Z,31.17
2023-12-03T14:32:15.625Z,33.05
2023-12-03T14:34:42.644Z,35.45
2023-12-03T14:37:09.610Z,32.10
2023-12-03T14:39:36.492Z,33.67
2023-12-03T14:42:03.724Z,28.15
2023-12-03T14:44:30.712Z,27.30
2023-12-03T14:46:57.620Z,24.95
2023-12-03T14:49:24.707Z,25.38
2023-12-03T14:51:51.707Z,21.48
2023-12-03T14:54:21.565Z,23.63
2023-12-03T14:56:48.956Z,24.80
2023-12-03T14:59:15.944Z,21.58
2023-12-03T15:01:42.997Z,24.60
2023-12-03T15:04:10.073Z,23.75
2023-12-03T15:06:37.119Z,23.75
2023-12-03T15:09:04.474Z,25.08
2023-12-03T15:11:31.527Z,24.83
2023-12-03T15:13:58.554Z,24.13
2023-12-03T15:16:27.727Z,26.70
2023-12-03T15:18:54.856Z,22.63
2023-12-03T15:21:21.763Z,26.00
2023-12-03T15:23:48.710Z,24.85
2023-12-03T15:26:15.665Z,22.33
2023-12-03T15:28:43.686Z,20.80
2023-12-03T15:31:11.761Z,26.88
2023-12-03T15:33:39.336Z,25.45
2023-12-03T15:36:07.449Z,21.75
2023-12-03T15:38:34.557Z,18.65
2023-12-03T15:41:01.888Z,22.92
2023-12-03T15:43:34.321Z,22.92
2023-12-03T15:46:08.965Z,22.75
2023-12-03T15:48:36.420Z,20.13
2023-12-03T15:51:03.636Z,19.33
2023-12-03T15:53:30.676Z,18.13
2023-12-03T15:55:58.480Z,20.40
2023-12-03T15:58:26.044Z,19.52
2023-12-03T16:00:53.590Z,18.73
2023-12-03T16:03:21.613Z,19.00
2023-12-03T16:05:49.633Z,18.60
2023-12-03T16:08:16.863Z,16.88
2023-12-03T16:10:43.979Z,19.60
2023-12-03T16:13:11.125Z,17.33
2023-12-03T16:15:38.117Z,19.08
2023-12-03T16:18:05.132Z,18.00
2023-12-03T16:20:32.059Z,18.35
2023-12-03T16:22:59.016Z,18.00
2023-12-03T16:25:25.921Z,18.95
2023-12-03T16:27:52.846Z,19.00
2023-12-03T16:30:19.781Z,18.73
2023-12-03T16:32:46.761Z,16.88
2023-12-03T16:35:13.972Z,21.38
2023-12-03T16:37:41.523Z,17.92
2023-12-03T16:40:09.929Z,20.95
2023-12-03T16:42:37.177Z,18.25
2023-12-03T16:45:05.268Z,18.48
2023-12-03T16:47:32.347Z,19.25
2023-12-03T16:50:01.266Z,19.50
2023-12-03T16:52:30.237Z,17.30
2023-12-03T16:54:57.746Z,16.92
2023-12-03T16:57:25.011Z,19.95
2023-12-03T16:59:52.183Z,15.65
2023-12-03T17:02:19.555Z,20.25
2023-12-03T17:04:46.533Z,18.90
2023-12-03T17:07:13.560Z,16.83
2023-12-03T17:09:40.614Z,18.92
2023-12-03T17:12:07.766Z,18.67
2023-12-03T17:14:34.792Z,16.90
2023-12-03T17:17:01.973Z,18.45
2023-12-03T17:19:29.044Z,14.77
2023-12-03T17:21:57.941Z,14.77
2023-12-03T17:24:24.981Z,14.98
2023-12-03T17:26:51.956Z,18.77
2023-12-03T17:29:19.179Z,15.27
2023-12-03T17:31:46.648Z,14.38
2023-12-03T17:34:13.888Z,15.98
2023-12-03T17:36:40.897Z,17.35
2023-12-03T17:39:09.310Z,15.02
2023-12-03T17:41:36.541Z,17.13
2023-12-03T17:44:03.706Z,14.75
2023-12-03T17:46:30.588Z,15.40
2023-12-03T17:48:57.665Z,16.25
2023-12-03T17:51:28.604Z,14.30
2023-12-03T17:53:55.714Z,17.00
2023-12-03T17:56:22.606Z,15.52
2023-12-03T17:58:49.459Z,14.73
2023-12-03T18:01:19.292Z,13.73
2023-12-03T18:03:48.131Z,13.63
2023-12-03T18:06:15.185Z,14.82
2023-12-03T18:08:42.104Z,13.57
2023-12-03T18:11:09.067Z,13.88
2023-12-03T18:13:36.003Z,13.25
2023-12-03T18:16:04.188Z,12.90
2023-12-03T18:18:31.324Z,15.10
2023-12-03T18:20:58.375Z,12.88
2023-12-03T18:23:26.527Z,13.30
2023-12-03T18:25:53.839Z,12.82
2023-12-03T18:28:20.801Z,13.65
2023-12-03T18:30:49.160Z,19.45
2023-12-03T18:33:18.453Z,15.32
2023-12-03T18:35:45.551Z,11.23
2023-12-03T18:38:13.160Z,13.15
2023-12-03T18:40:44.879Z,23.63
2023-12-03T18:43:11.997Z,11.63
2023-12-03T18:45:39.070Z,11.07
2023-12-03T18:48:06.098Z,11.45
2023-12-03T18:50:33.331Z,10.35
2023-12-03T18:53:00.372Z,11.60
2023-12-03T18:55:27.286Z,12.07
2023-12-03T18:57:54.248Z,9.25
2023-12-03T19:00:22.005Z,10.25
2023-12-03T19:02:49.777Z,12.38
2023-12-03T19:05:17.206Z,10.60
2023-12-03T19:07:50.196Z,9.90
2023-12-03T19:10:19.842Z,10.30
2023-12-03T19:12:53.452Z,11.43
2023-12-03T19:15:23.238Z,8.70
2023-12-03T19:17:50.124Z,9.05
2023-12-03T19:20:17.088Z,8.02
2023-12-03T19:22:43.972Z,8.02
2023-12-03T19:25:10.976Z,7.47
2023-12-03T19:27:37.910Z,7.95
2023-12-03T19:30:08.347Z,8.18
2023-12-03T19:32:35.538Z,10.43
2023-12-03T19:35:04.319Z,7.88
2023-12-03T19:37:31.380Z,7.10
2023-12-03T19:39:59.757Z,8.02
2023-12-03T19:42:26.675Z,7.88
2023-12-03T19:44:53.685Z,8.75
2023-12-03T19:47:20.664Z,11.55
2023-12-03T19:49:47.959Z,7.35
2023-12-03T19:52:15.120Z,6.85
2023-12-03T19:54:42.784Z,6.85
2023-12-03T19:57:10.009Z,6.97
2023-12-03T19:59:36.902Z,6.80
2023-12-03T20:02:03.979Z,8.52
2023-12-03T20:04:31.014Z,7.38
2023-12-03T20:06:59.474Z,6.18
2023-12-03T20:09:26.536Z,6.32
2023-12-03T20:11:53.441Z,6.18
2023-12-03T20:14:22.491Z,6.85
2023-12-03T20:16:51.401Z,6.78
2023-12-03T20:19:18.383Z,5.88
2023-12-03T20:21:45.267Z,7.35
2023-12-03T20:24:12.332Z,7.05
2023-12-03T20:26:39.345Z,6.25
2023-12-03T20:29:06.244Z,7.43
2023-12-03T20:31:34.659Z,7.60
2023-12-03T20:34:02.973Z,5.55
2023-12-03T20:36:36.682Z,7.15
2023-12-03T20:39:07.109Z,6.38
2023-12-03T20:41:34.028Z,5.93
2023-12-03T20:44:02.745Z,7.05
2023-12-03T20:46:29.691Z,5.13
2023-12-03T20:48:56.763Z,6.40
2023-12-03T20:51:24.361Z,6.25
2023-12-03T20:53:52.686Z,6.22
2023-12-03T20:56:19.962Z,7.72
2023-12-03T20:58:46.970Z,6.75
2023-12-03T21:01:13.958Z,7.40
2023-12-03T21:03:41.199Z,5.18
2023-12-03T21:06:08.643Z,5.93
2023-12-03T21:08:35.591Z,5.53
2023-12-03T21:11:02.967Z,4.25
2023-12-03T21:13:29.857Z,6.93
2023-12-03T21:15:58.401Z,7.22
2023-12-03T21:18:25.571Z,5.05
2023-12-03T21:20:52.550Z,5.03
2023-12-03T21:23:19.431Z,5.15
2023-12-03T21:25:46.332Z,5.80
2023-12-03T21:28:13.549Z,6.60
2023-12-03T21:30:40.458Z,6.50
2023-12-03T21:33:08.415Z,5.40
2023-12-03T21:35:35.366Z,6.45
2023-12-03T21:38:07.456Z,7.43
2023-12-03T21:40:37.965Z,5.18
2023-12-03T21:43:07.814Z,6.30
2023-12-03T21:45:34.763Z,6.05
2023-12-03T21:48:01.914Z,6.90
2023-12-03T21:50:28.854Z,5.88
2023-12-03T21:52:55.822Z,6.28
2023-12-03T21:55:22.729Z,6.32
2023-12-03T21:57:49.597Z,6.53
2023-12-03T22:00:18.686Z,6.90
2023-12-03T22:02:45.789Z,6.15
2023-12-03T22:05:14.493Z,6.32
2023-12-03T22:07:42.713Z,6.15
2023-12-03T22:10:10.146Z,8.65
2023-12-03T22:12:37.356Z,10.50
2023-12-03T22:15:04.879Z,6.82
2023-12-03T22:17:31.810Z,6.22
2023-12-03T22:19:58.943Z,7.90
2023-12-03T22:22:25.969Z,12.63
2023-12-03T22:24:52.979Z,7.38
2023-12-03T22:27:19.894Z,10.70
2023-12-03T22:29:50.488Z,6.80
2023-12-03T22:32:21.549Z,8.50
2023-12-03T22:34:48.419Z,7.35
2023-12-03T22:37:15.309Z,6.65
2023-12-03T22:39:42.666Z,6.78
2023-12-03T22:42:09.611Z,7.03
2023-12-03T22:44:36.511Z,7.07
2023-12-03T22:47:03.438Z,8.95
2023-12-03T22:49:30.311Z,7.60
2023-12-03T22:51:58.350Z,9.73
2023-12-03T22:54:25.294Z,8.27
2023-12-03T22:56:53.208Z,7.38
2023-12-03T22:59:20.421Z,7.57
2023-12-03T23:01:47.336Z,7.75
2023-12-03T23:04:14.428Z,8.23
2023-12-03T23:06:41.447Z,7.45
2023-12-03T23:09:08.327Z,7.63
2023-12-03T23:11:36.928Z,9.18
2023-12-03T23:14:04.270Z,7.13
2023-12-03T23:16:31.188Z,9.05
2023-12-03T23:18:58.164Z,8.93
2023-12-03T23:21:25.075Z,7.53
2023-12-03T23:23:52.338Z,8.82
2023-12-03T23:26:19.234Z,8.43
2023-12-03T23:28:46.911Z,7.97
2023-12-03T23:31:13.805Z,7.47
2023-12-03T23:33:40.778Z,8.63
2023-12-03T23:36:08.188Z,6.65
2023-12-03T23:38:35.143Z,8.57
2023-12-03T23:41:01.978Z,8.38
2023-12-03T23:43:28.924Z,7.90
2023-12-03T23:45:55.814Z,7.75
2023-12-03T23:48:22.930Z,8.38
2023-12-03T23:50:49.914Z,9.52
2023-12-03T23:53:16.771Z,8.77
2023-12-03T23:55:43.630Z,8.10
2023-12-03T23:58:10.450Z,7.63
